Time;durP1;ratioP1;P1;durP2;ratioP2;P2;SDS_P1;SDS_P2;PMS_P1;PMS_P2;Temp;Humidity;BMP_temperature;BMP_pressure;BME280_temperature;BME280_humidity;BME280_pressure;Samples;Min_cycle;Max_cycle;Signal;HPM_P1;HPM_P2
2023/10/27 00:01:31;;;;;;;42.60;25.45;;;10.00;99.90;;;;;;5042729;28;20523;-58
2023/10/27 00:03:57;;;;;;;38.90;24.53;;;10.10;99.90;;;;;;5057677;28;20041;-59
2023/10/27 00:06:23;;;;;;;41.83;23.93;;;10.00;99.90;;;;;;5056208;28;20768;-57
2023/10/27 00:08:48;;;;;;;39.03;23.77;;;10.00;99.90;;;;;;5060643;28;20275;-59
2023/10/27 00:11:14;;;;;;;42.10;26.42;;;10.00;99.90;;;;;;5064809;28;20048;-59
2023/10/27 00:13:39;;;;;;;36.55;23.17;;;10.00;99.90;;;;;;5067209;28;20048;-59
2023/10/27 00:16:11;;;;;;;40.23;26.50;;;10.00;99.90;;;;;;5065691;28;20487;-59
2023/10/27 00:18:37;;;;;;;42.58;25.27;;;10.00;99.90;;;;;;5045039;28;20292;-58
2023/10/27 00:21:03;;;;;;;45.95;25.95;;;10.00;99.90;;;;;;5046335;28;20036;-58
2023/10/27 00:23:29;;;;;;;50.47;27.35;;;10.00;99.90;;;;;;5060872;28;20040;-59
2023/10/27 00:25:55;;;;;;;49.73;27.33;;;10.00;99.90;;;;;;5061002;28;20033;-57
2023/10/27 00:28:20;;;;;;;49.03;28.08;;;10.00;99.90;;;;;;5061307;28;20090;-58
2023/10/27 00:30:46;;;;;;;53.53;27.57;;;10.00;99.90;;;;;;5062529;28;20036;-58
2023/10/27 00:33:11;;;;;;;47.30;26.47;;;9.90;99.90;;;;;;5061966;28;20282;-59
2023/10/27 00:35:37;;;;;;;45.03;26.42;;;9.90;99.90;;;;;;5048337;28;20071;-58
2023/10/27 00:38:03;;;;;;;44.25;25.33;;;10.00;99.90;;;;;;5062613;28;20118;-60
2023/10/27 00:40:29;;;;;;;47.53;26.60;;;9.90;99.90;;;;;;5042925;28;20032;-58
2023/10/27 00:42:58;;;;;;;42.95;25.70;;;9.90;99.90;;;;;;5060041;28;20021;-60
2023/10/27 00:45:25;;;;;;;38.50;24.20;;;9.90;99.90;;;;;;5065611;28;20029;-58
2023/10/27 00:47:51;;;;;;;41.50;23.15;;;9.90;99.90;;;;;;5062820;28;20090;-58
2023/10/27 00:50:17;;;;;;;41.67;23.40;;;9.90;99.90;;;;;;5064613;28;20115;-59
2023/10/27 00:52:42;;;;;;;36.28;23.27;;;9.90;99.90;;;;;;5065766;28;20043;-58
2023/10/27 00:55:09;;;;;;;41.60;22.92;;;9.90;99.90;;;;;;5038301;28;20115;-58
2023/10/27 00:57:36;;;;;;;38.33;23.23;;;9.90;99.90;;;;;;5062722;28;20108;-58
2023/10/27 01:00:04;;;;;;;38.30;24.10;;;9.90;99.90;;;;;;5065461;28;20033;-59
2023/10/27 01:02:29;;;;;;;38.65;22.73;;;9.90;99.90;;;;;;5066109;28;20196;-56
2023/10/27 01:04:55;;;;;;;40.88;23.67;;;9.90;99.90;;;;;;5049035;28;20039;-57
2023/10/27 01:07:23;;;;;;;36.13;23.60;;;9.90;99.90;;;;;;5060016;28;20039;-59
2023/10/27 01:09:49;;;;;;;38.78;21.92;;;9.90;99.90;;;;;;5064567;28;20470;-58
2023/10/27 01:12:15;;;;;;;36.38;22.38;;;9.80;99.90;;;;;;5065063;28;20072;-60
2023/10/27 01:14:40;;;;;;;36.63;22.08;;;9.80;99.90;;;;;;5064274;28;20047;-59
2023/10/27 01:17:06;;;;;;;37.37;22.63;;;9.80;99.90;;;;;;5065400;28;20033;-58
2023/10/27 01:19:32;;;;;;;41.20;23.08;;;9.80;99.90;;;;;;5066864;28;20036;-59
2023/10/27 01:21:57;;;;;;;37.15;22.05;;;9.70;99.90;;;;;;5066593;28;20458;-59
2023/10/27 01:24:23;;;;;;;38.08;23.17;;;9.70;99.90;;;;;;5064742;28;20099;-59
2023/10/27 01:26:49;;;;;;;39.50;23.27;;;9.70;99.90;;;;;;5066075;28;20484;-58
2023/10/27 01:29:15;;;;;;;33.38;22.15;;;9.70;99.90;;;;;;5046151;28;20368;-58
2023/10/27 01:31:41;;;;;;;39.97;23.98;;;9.70;99.90;;;;;;5050294;28;20135;-59
2023/10/27 01:34:06;;;;;;;39.03;23.07;;;9.70;99.90;;;;;;5070015;28;20454;-59
2023/10/27 01:36:32;;;;;;;38.03;21.97;;;9.70;99.90;;;;;;5051757;28;20341;-59
2023/10/27 01:38:58;;;;;;;37.20;21.50;;;9.70;99.90;;;;;;5066663;28;20029;-59
2023/10/27 01:41:23;;;;;;;39.75;23.05;;;9.70;99.90;;;;;;5065024;28;20599;-57
2023/10/27 01:43:49;;;;;;;44.05;22.27;;;9.70;99.90;;;;;;5066126;28;20246;-58
2023/10/27 01:46:14;;;;;;;42.37;25.00;;;9.70;99.90;;;;;;5065099;28;20110;-57
2023/10/27 01:48:40;;;;;;;39.77;24.00;;;9.70;99.90;;;;;;5066946;28;20283;-60
2023/10/27 01:51:06;;;;;;;41.03;24.10;;;9.70;99.90;;;;;;5047387;28;20119;-59
2023/10/27 01:53:33;;;;;;;36.50;22.05;;;9.70;99.90;;;;;;5066184;28;20051;-60
2023/10/27 01:55:58;;;;;;;39.35;23.05;;;9.70;99.90;;;;;;5062081;28;20032;-59
2023/10/27 01:58:27;;;;;;;45.50;25.40;;;9.70;99.90;;;;;;5058564;28;20030;-59
2023/10/27 02:00:53;;;;;;;41.35;22.90;;;9.70;99.90;;;;;;5062640;28;20033;-58
2023/10/27 02:03:19;;;;;;;43.05;24.42;;;9.70;99.90;;;;;;5059685;28;20046;-58
2023/10/27 02:05:44;;;;;;;54.72;25.98;;;9.70;99.90;;;;;;5066445;28;20125;-57
2023/10/27 02:08:10;;;;;;;41.97;24.77;;;9.60;99.90;;;;;;5060256;28;20415;-59
2023/10/27 02:10:36;;;;;;;47.78;25.95;;;9.60;99.90;;;;;;5036886;28;20036;-59
2023/10/27 02:13:01;;;;;;;45.20;24.60;;;9.60;99.90;;;;;;5045866;28;20040;-60
2023/10/27 02:15:27;;;;;;;46.30;25.83;;;9.60;99.90;;;;;;5057438;28;20566;-59
2023/10/27 02:17:53;;;;;;;48.22;27.25;;;9.60;99.90;;;;;;5065786;28;20155;-58
2023/10/27 02:20:18;;;;;;;51.20;28.23;;;9.50;99.90;;;;;;5063177;28;20036;-59
2023/10/27 02:22:44;;;;;;;49.27;27.77;;;9.50;99.90;;;;;;5065966;28;20037;-59
2023/10/27 02:25:10;;;;;;;50.92;27.55;;;9.50;99.90;;;;;;5064906;28;20274;-57
2023/10/27 02:27:40;;;;;;;52.13;27.65;;;9.50;99.90;;;;;;5066225;28;20029;-57
2023/10/27 02:30:09;;;;;;;51.50;28.05;;;9.50;99.90;;;;;;5065524;28;20040;-58
2023/10/27 02:32:35;;;;;;;47.90;27.20;;;9.50;99.90;;;;;;5065701;28;20434;-58
2023/10/27 02:35:00;;;;;;;60.70;28.97;;;9.50;99.90;;;;;;5062646;28;20091;-59
2023/10/27 02:37:26;;;;;;;51.10;28.90;;;9.50;99.90;;;;;;5067937;28;20041;-58
2023/10/27 02:39:52;;;;;;;55.53;28.77;;;9.50;99.90;;;;;;5066811;28;20781;-57
2023/10/27 02:42:17;;;;;;;49.13;27.77;;;9.40;99.90;;;;;;5067604;28;20446;-56
2023/10/27 02:44:43;;;;;;;53.87;29.47;;;9.50;99.90;;;;;;5052288;28;20044;-59
2023/10/27 02:47:08;;;;;;;51.03;29.30;;;9.50;99.90;;;;;;5068848;28;20090;-58
2023/10/27 02:49:34;;;;;;;51.67;29.17;;;9.50;99.90;;;;;;5070097;28;20279;-58
2023/10/27 02:52:00;;;;;;;48.63;27.87;;;9.50;99.90;;;;;;5051847;28;20033;-60
2023/10/27 02:54:25;;;;;;;53.60;27.17;;;9.50;99.90;;;;;;5068520;28;20362;-58
2023/10/27 02:56:51;;;;;;;46.95;27.45;;;9.50;99.90;;;;;;5069378;28;20338;-58
2023/10/27 02:59:17;;;;;;;52.83;28.25;;;9.60;99.90;;;;;;5068233;28;20036;-59
2023/10/27 03:01:45;;;;;;;54.07;29.30;;;9.60;99.90;;;;;;5068994;28;20083;-58
2023/10/27 03:04:12;;;;;;;50.08;27.60;;;9.60;99.90;;;;;;5045249;28;20040;-59
2023/10/27 03:06:38;;;;;;;45.92;27.80;;;9.60;99.90;;;;;;5067413;28;20041;-59
2023/10/27 03:09:04;;;;;;;50.17;27.77;;;9.60;99.90;;;;;;5066602;28;20521;-57
2023/10/27 03:11:30;;;;;;;46.30;26.38;;;9.60;99.90;;;;;;5064816;28;20514;-59
2023/10/27 03:13:55;;;;;;;49.65;28.35;;;9.60;99.90;;;;;;5051810;28;20120;-58
2023/10/27 03:16:22;;;;;;;49.97;29.00;;;9.60;99.90;;;;;;5068221;28;20579;-59
2023/10/27 03:18:48;;;;;;;50.55;27.50;;;9.60;99.90;;;;;;5059423;28;20326;-57
2023/10/27 03:21:14;;;;;;;46.83;26.98;;;9.60;99.90;;;;;;5067571;28;20044;-57
2023/10/27 03:23:40;;;;;;;43.63;26.02;;;9.60;99.90;;;;;;5068953;28;20036;-58
2023/10/27 03:26:05;;;;;;;41.03;25.27;;;9.60;99.90;;;;;;5048871;28;20056;-59
2023/10/27 03:28:31;;;;;;;50.03;28.90;;;9.60;99.90;;;;;;5069222;28;20365;-60
2023/10/27 03:30:57;;;;;;;47.90;27.43;;;9.60;99.90;;;;;;5069464;28;20129;-58
2023/10/27 03:33:23;;;;;;;45.05;26.42;;;9.60;99.90;;;;;;5067789;28;20299;-58
2023/10/27 03:35:49;;;;;;;44.35;26.88;;;9.60;99.90;;;;;;5068820;28;20045;-59
2023/10/27 03:38:14;;;;;;;49.30;27.85;;;9.70;99.90;;;;;;5047767;28;20036;-56
2023/10/27 03:40:41;;;;;;;48.08;26.27;;;9.70;99.90;;;;;;5067627;28;20502;-59
2023/10/27 03:43:07;;;;;;;45.90;26.00;;;9.70;99.90;;;;;;5067213;28;20032;-59
2023/10/27 03:45:36;;;;;;;41.22;26.25;;;9.70;99.90;;;;;;5051159;28;20542;-58
2023/10/27 03:48:02;;;;;;;50.45;26.35;;;9.60;99.90;;;;;;5068268;28;20174;-58
2023/10/27 03:50:28;;;;;;;46.20;26.02;;;9.60;99.90;;;;;;5068150;28;20044;-58
2023/10/27 03:52:54;;;;;;;42.83;26.10;;;9.60;99.90;;;;;;5050808;28;20040;-57
2023/10/27 03:55:19;;;;;;;41.03;25.30;;;9.60;99.90;;;;;;5067927;28;20042;-58
2023/10/27 03:57:45;;;;;;;45.40;26.13;;;9.60;99.90;;;;;;5069287;28;20108;-56
2023/10/27 04:00:11;;;;;;;45.93;26.83;;;9.60;99.90;;;;;;5068352;28;20048;-58
2023/10/27 04:02:40;;;;;;;48.83;26.60;;;9.60;99.90;;;;;;5051016;28;20332;-58
2023/10/27 04:05:06;;;;;;;43.45;25.77;;;9.60;99.90;;;;;;5067622;28;20033;-58
2023/10/27 04:07:31;;;;;;;48.33;26.98;;;9.50;99.90;;;;;;5068097;28;20123;-57
2023/10/27 04:09:57;;;;;;;39.77;24.43;;;9.50;99.90;;;;;;5069105;28;20115;-57
2023/10/27 04:12:23;;;;;;;47.33;26.65;;;9.50;99.90;;;;;;5070453;28;20863;-59
2023/10/27 04:14:49;;;;;;;44.40;24.88;;;9.50;99.90;;;;;;5069395;28;20121;-59
2023/10/27 04:17:14;;;;;;;43.13;25.90;;;9.50;99.90;;;;;;5046393;28;20143;-59
2023/10/27 04:19:43;;;;;;;42.00;24.80;;;9.50;99.90;;;;;;5064298;28;20056;-59
2023/10/27 04:22:09;;;;;;;42.65;24.52;;;9.50;99.90;;;;;;5057391;28;20037;-59
2023/10/27 04:24:34;;;;;;;51.65;26.52;;;9.50;99.90;;;;;;5060516;28;20079;-58
2023/10/27 04:27:00;;;;;;;45.63;26.70;;;9.50;99.90;;;;;;5064032;28;20510;-59
2023/10/27 04:29:25;;;;;;;44.97;26.67;;;9.50;99.90;;;;;;5065913;28;20037;-57
2023/10/27 04:31:51;;;;;;;47.20;27.52;;;9.50;99.90;;;;;;5065922;28;20455;-58
2023/10/27 04:34:17;;;;;;;50.25;26.70;;;9.50;99.90;;;;;;5067467;28;20060;-59
2023/10/27 04:36:43;;;;;;;46.13;25.33;;;9.50;99.90;;;;;;5067535;28;20035;-58
2023/10/27 04:39:09;;;;;;;44.45;24.52;;;9.50;99.90;;;;;;5062375;28;20075;-59
2023/10/27 04:41:35;;;;;;;53.40;26.23;;;9.50;99.90;;;;;;5047036;28;20477;-58
2023/10/27 04:44:00;;;;;;;47.03;24.00;;;9.50;99.90;;;;;;5067396;28;20275;-58
2023/10/27 04:46:26;;;;;;;49.93;26.10;;;9.50;99.90;;;;;;5067411;28;20267;-59
2023/10/27 04:48:52;;;;;;;46.00;24.50;;;9.50;99.90;;;;;;5068146;28;20299;-58
2023/10/27 04:51:17;;;;;;;43.15;24.63;;;9.50;99.90;;;;;;5066926;28;20544;-58
2023/10/27 04:53:43;;;;;;;49.10;25.23;;;9.50;99.90;;;;;;5068418;28;20033;-58
2023/10/27 04:56:09;;;;;;;42.40;24.27;;;9.50;99.90;;;;;;5049279;28;20307;-59
2023/10/27 04:58:34;;;;;;;44.35;25.83;;;9.50;99.90;;;;;;5067328;28;20036;-60
2023/10/27 05:01:00;;;;;;;37.67;22.43;;;9.50;99.90;;;;;;5068183;28;20044;-58
2023/10/27 05:03:27;;;;;;;41.25;23.52;;;9.50;99.90;;;;;;5067152;28;20271;-56
2023/10/27 05:05:52;;;;;;;39.53;23.35;;;9.50;99.90;;;;;;5067575;28;20451;-59
2023/10/27 05:08:18;;;;;;;37.72;23.10;;;9.50;99.90;;;;;;5067472;28;20037;-58
2023/10/27 05:10:44;;;;;;;37.83;22.43;;;9.50;99.90;;;;;;5068246;28;20086;-58
2023/10/27 05:13:09;;;;;;;38.53;22.55;;;9.60;99.90;;;;;;5066816;28;20075;-59
2023/10/27 05:15:37;;;;;;;43.13;22.13;;;9.50;99.90;;;;;;5067848;28;20028;-58
2023/10/27 05:18:06;;;;;;;36.63;22.33;;;9.50;99.90;;;;;;5067204;28;20048;-59
2023/10/27 05:20:38;;;;;;;34.35;20.70;;;9.50;99.90;;;;;;5033238;28;20411;-59
2023/10/27 05:23:04;;;;;;;41.55;23.63;;;9.60;99.90;;;;;;5063218;28;20067;-59
2023/10/27 05:25:29;;;;;;;37.97;23.27;;;9.50;99.90;;;;;;5063958;28;20060;-59
2023/10/27 05:27:55;;;;;;;41.92;22.55;;;9.50;99.90;;;;;;5064874;28;20044;-58
2023/10/27 05:30:20;;;;;;;40.17;23.77;;;9.50;99.90;;;;;;5066905;28;20123;-59
2023/10/27 05:32:46;;;;;;;42.30;23.87;;;9.50;99.90;;;;;;5067227;28;20267;-58
2023/10/27 05:35:12;;;;;;;41.53;24.80;;;9.50;99.90;;;;;;5066710;28;20041;-58
2023/10/27 05:37:37;;;;;;;42.90;22.48;;;9.50;99.90;;;;;;5066898;28;20414;-59
2023/10/27 05:40:04;;;;;;;43.45;23.77;;;9.40;99.90;;;;;;5064774;28;20040;-59
2023/10/27 05:42:30;;;;;;;44.50;23.85;;;9.50;99.90;;;;;;5065856;28;20032;-60
2023/10/27 05:44:56;;;;;;;40.80;23.25;;;9.40;99.90;;;;;;5064027;28;20064;-55
2023/10/27 05:47:21;;;;;;;43.78;23.85;;;9.40;99.90;;;;;;5057085;28;20090;-59
2023/10/27 05:49:47;;;;;;;40.85;23.45;;;9.40;99.90;;;;;;5056794;28;20029;-60
2023/10/27 05:52:14;;;;;;;42.25;24.65;;;9.40;99.90;;;;;;5040575;28;20047;-57
2023/10/27 05:54:40;;;;;;;41.50;22.08;;;9.40;99.90;;;;;;5060222;28;20040;-58
2023/10/27 05:57:08;;;;;;;43.60;24.58;;;9.40;99.90;;;;;;5067016;28;20412;-57
2023/10/27 05:59:34;;;;;;;39.35;23.75;;;9.40;99.90;;;;;;5061618;28;20495;-59
2023/10/27 06:02:00;;;;;;;45.25;24.63;;;9.40;99.90;;;;;;5066953;28;20331;-58
2023/10/27 06:04:25;;;;;;;38.30;22.33;;;9.40;99.90;;;;;;5063266;28;20638;-59
2023/10/27 06:06:51;;;;;;;38.22;24.15;;;9.40;99.90;;;;;;5034781;28;20099;-58
2023/10/27 06:09:16;;;;;;;40.93;24.87;;;9.40;99.90;;;;;;5065514;28;20040;-58
2023/10/27 06:11:42;;;;;;;44.45;23.77;;;9.40;99.90;;;;;;5055533;28;20036;-57
2023/10/27 06:14:08;;;;;;;44.70;25.00;;;9.40;99.90;;;;;;5059630;28;20072;-58
2023/10/27 06:16:34;;;;;;;46.75;25.80;;;9.40;99.90;;;;;;5062746;28;20299;-58
2023/10/27 06:18:59;;;;;;;39.95;24.40;;;9.40;99.90;;;;;;5054835;28;20029;-57
2023/10/27 06:21:25;;;;;;;42.43;25.73;;;9.40;99.90;;;;;;5058243;28;20070;-58
2023/10/27 06:23:51;;;;;;;50.88;28.15;;;9.40;99.90;;;;;;5046984;28;20283;-58
2023/10/27 06:26:16;;;;;;;57.80;30.00;;;9.40;99.90;;;;;;5063027;28;20095;-58
2023/10/27 06:28:42;;;;;;;53.67;29.15;;;9.30;99.90;;;;;;5041029;28;20475;-58
2023/10/27 06:31:09;;;;;;;62.42;32.17;;;9.30;99.90;;;;;;5057892;28;20037;-57
2023/10/27 06:33:36;;;;;;;59.58;30.92;;;9.30;99.90;;;;;;5067925;28;20151;-58
2023/10/27 06:36:02;;;;;;;63.67;31.08;;;9.30;99.90;;;;;;5070800;28;20518;-58
2023/10/27 06:38:29;;;;;;;61.03;30.20;;;9.30;99.90;;;;;;5068864;28;20102;-58
2023/10/27 06:40:55;;;;;;;71.47;35.13;;;9.30;99.90;;;;;;5048881;28;20041;-58
2023/10/27 06:43:20;;;;;;;72.77;36.63;;;9.30;99.90;;;;;;5046727;28;20041;-58
2023/10/27 06:45:46;;;;;;;71.47;34.93;;;9.30;99.90;;;;;;5038143;28;20921;-56
2023/10/27 06:48:12;;;;;;;71.82;35.28;;;9.20;99.90;;;;;;5023078;28;20394;-58
2023/10/27 06:50:37;;;;;;;71.73;33.73;;;9.20;99.90;;;;;;5044298;28;20456;-58
2023/10/27 06:53:03;;;;;;;74.33;33.43;;;9.20;99.90;;;;;;5059746;28;20270;-57
2023/10/27 06:55:29;;;;;;;65.97;33.63;;;9.20;99.90;;;;;;5073203;28;20328;-58
2023/10/27 06:57:55;;;;;;;62.27;31.93;;;9.20;99.90;;;;;;5062159;28;20068;-57
2023/10/27 07:00:21;;;;;;;61.80;30.83;;;9.20;99.90;;;;;;5053731;28;20374;-56
2023/10/27 07:02:47;;;;;;;62.83;30.50;;;9.20;99.90;;;;;;5050152;28;20348;-56
2023/10/27 07:05:16;;;;;;;;;;;9.30;99.90;;;;;;5052025;28;20418;-58
2023/10/27 07:07:42;;;;;;;48.78;24.55;;;9.30;99.90;;;;;;5049526;28;19920;-58
2023/10/27 07:10:09;;;;;;;46.55;26.98;;;9.30;99.90;;;;;;5051164;28;20406;-57
2023/10/27 07:12:35;;;;;;;48.88;25.38;;;9.40;99.90;;;;;;5053953;28;20028;-58
2023/10/27 07:15:00;;;;;;;43.80;25.53;;;9.40;99.90;;;;;;5046148;28;20041;-58
2023/10/27 07:17:26;;;;;;;47.30;26.20;;;9.50;99.90;;;;;;5057854;28;20304;-58
2023/10/27 07:19:51;;;;;;;46.03;25.20;;;9.50;99.90;;;;;;5061057;28;20033;-58
2023/10/27 07:22:19;;;;;;;45.00;24.70;;;9.50;99.90;;;;;;5043417;28;20033;-58
2023/10/27 07:24:47;;;;;;;51.15;25.75;;;9.60;99.90;;;;;;5047141;28;20319;-57
2023/10/27 07:27:13;;;;;;;45.63;24.83;;;9.60;99.90;;;;;;5046030;28;20036;-58
2023/10/27 07:29:39;;;;;;;48.92;24.75;;;9.60;99.90;;;;;;5040432;28;20126;-53
2023/10/27 07:32:05;;;;;;;48.17;24.60;;;9.70;99.90;;;;;;5051038;28;20037;-57
2023/10/27 07:34:31;;;;;;;42.83;22.63;;;9.70;99.90;;;;;;5051429;28;20049;-59
2023/10/27 07:36:57;;;;;;;46.42;24.33;;;9.70;99.90;;;;;;5052240;28;20048;-58
2023/10/27 07:39:22;;;;;;;44.92;24.17;;;9.70;99.90;;;;;;5038119;28;20068;-56
2023/10/27 07:41:49;;;;;;;46.47;25.50;;;9.70;99.90;;;;;;5061558;28;20063;-57
2023/10/27 07:44:15;;;;;;;39.08;22.52;;;9.80;99.90;;;;;;5024544;28;20283;-57
2023/10/27 07:46:40;;;;;;;40.07;23.27;;;9.80;99.90;;;;;;5045279;28;20099;-57
2023/10/27 07:49:06;;;;;;;36.90;21.40;;;9.80;99.90;;;;;;5065198;28;20293;-56
2023/10/27 07:51:32;;;;;;;35.85;22.25;;;9.80;99.90;;;;;;5063085;28;20203;-55
2023/10/27 07:53:58;;;;;;;38.53;21.88;;;9.90;99.90;;;;;;5064386;28;20127;-55
2023/10/27 07:56:23;;;;;;;40.57;23.07;;;9.90;99.90;;;;;;5044607;28;20127;-57
2023/10/27 07:58:49;;;;;;;38.17;23.58;;;9.90;99.90;;;;;;5054799;28;20307;-58
2023/10/27 08:01:15;;;;;;;40.33;23.20;;;9.90;99.90;;;;;;5039290;28;20572;-56
2023/10/27 08:03:41;;;;;;;38.33;24.15;;;9.90;99.90;;;;;;5047401;28;20045;-56
2023/10/27 08:06:08;;;;;;;41.05;23.80;;;9.90;99.90;;;;;;5057709;28;20419;-57
2023/10/27 08:08:34;;;;;;;40.33;23.90;;;9.90;99.90;;;;;;5046447;28;20526;-56
2023/10/27 08:11:00;;;;;;;40.72;22.90;;;9.90;99.90;;;;;;5055926;28;20053;-57
2023/10/27 08:13:25;;;;;;;40.70;20.30;;;9.90;99.90;;;;;;5069442;28;20068;-56
2023/10/27 08:15:51;;;;;;;41.20;23.23;;;9.90;99.90;;;;;;5063138;28;20079;-58
2023/10/27 08:18:17;;;;;;;38.10;21.60;;;9.90;99.90;;;;;;5070151;28;20049;-57
2023/10/27 08:20:43;;;;;;;41.40;23.02;;;9.90;99.90;;;;;;5067085;28;20272;-58
2023/10/27 08:23:09;;;;;;;40.17;22.02;;;9.90;99.90;;;;;;5061097;28;20033;-56
2023/10/27 08:25:35;;;;;;;38.35;22.35;;;9.90;99.90;;;;;;5046855;28;20056;-56
2023/10/27 08:28:00;;;;;;;41.00;23.67;;;9.90;99.90;;;;;;5051967;28;20064;-56
2023/10/27 08:30:26;;;;;;;43.13;23.23;;;9.90;99.90;;;;;;5055045;28;20032;-58
2023/10/27 08:32:52;;;;;;;39.50;22.40;;;9.90;99.90;;;;;;5062436;28;20503;-56
2023/10/27 08:35:18;;;;;;;40.10;22.55;;;9.90;99.90;;;;;;5061996;28;20056;-56
2023/10/27 08:37:44;;;;;;;31.70;20.63;;;9.90;99.90;;;;;;5052316;28;20408;-56
2023/10/27 08:40:12;;;;;;;37.10;21.90;;;9.90;99.90;;;;;;5040603;28;20128;-58
2023/10/27 08:42:42;;;;;;;39.53;22.50;;;9.90;99.90;;;;;;5053833;28;20075;-58
2023/10/27 08:45:08;;;;;;;34.97;20.92;;;9.90;99.90;;;;;;5055201;28;20048;-58
2023/10/27 08:47:36;;;;;;;40.50;24.77;;;10.00;99.90;;;;;;5054710;28;20087;-57
2023/10/27 08:50:03;;;;;;;39.22;22.58;;;10.00;99.90;;;;;;5059618;28;20052;-58
2023/10/27 08:52:29;;;;;;;38.17;22.20;;;10.00;99.90;;;;;;5062408;28;20044;-57
2023/10/27 08:54:55;;;;;;;40.95;23.90;;;9.90;99.90;;;;;;5066820;28;20119;-55
2023/10/27 08:57:20;;;;;;;45.27;24.43;;;10.00;99.90;;;;;;5049846;28;20127;-58
2023/10/27 08:59:47;;;;;;;43.57;23.07;;;10.00;99.90;;;;;;5054716;28;20271;-58
2023/10/27 09:02:12;;;;;;;39.15;21.25;;;9.90;99.90;;;;;;5069089;28;20495;-57
2023/10/27 09:04:44;;;;;;;40.17;22.77;;;10.00;99.90;;;;;;5069579;28;20120;-57
2023/10/27 09:07:10;;;;;;;35.47;20.42;;;10.00;99.90;;;;;;5069113;28;20278;-56
2023/10/27 09:09:35;;;;;;;40.73;24.27;;;9.90;99.90;;;;;;5051664;28;20052;-57
2023/10/27 09:12:01;;;;;;;40.60;22.58;;;9.90;99.90;;;;;;5069690;28;20048;-57
2023/10/27 09:14:30;;;;;;;37.70;22.70;;;9.90;99.90;;;;;;5067096;28;20072;-56
2023/10/27 09:17:10;;;;;;;41.67;22.58;;;9.90;99.90;;;;;;5066412;28;20044;-58
2023/10/27 09:19:36;;;;;;;39.60;21.20;;;9.90;99.90;;;;;;5068073;28;20036;-58
2023/10/27 09:22:05;;;;;;;43.30;23.02;;;9.90;99.90;;;;;;5049238;28;20093;-58
2023/10/27 09:24:31;;;;;;;38.08;21.92;;;9.90;99.90;;;;;;5069377;28;20037;-56
2023/10/27 09:27:00;;;;;;;35.40;20.85;;;9.90;99.90;;;;;;5068832;28;20052;-57
2023/10/27 09:29:27;;;;;;;35.55;20.25;;;10.00;99.90;;;;;;5051363;28;20120;-56
2023/10/27 09:31:53;;;;;;;35.60;20.15;;;10.00;99.90;;;;;;5069398;28;20120;-54
2023/10/27 09:34:23;;;;;;;34.53;19.30;;;10.00;99.90;;;;;;5069210;28;20071;-58
2023/10/27 09:36:54;;;;;;;37.95;21.35;;;10.00;99.90;;;;;;5067300;28;20079;-58
2023/10/27 09:39:23;;;;;;;39.65;20.63;;;10.10;99.90;;;;;;5069196;28;20033;-58
2023/10/27 09:41:55;;;;;;;36.30;20.23;;;10.10;99.90;;;;;;5069104;28;20063;-56
2023/10/27 09:44:35;;;;;;;34.25;19.90;;;10.10;99.90;;;;;;5067478;28;20044;-56
2023/10/27 09:47:09;;;;;;;36.83;21.02;;;10.10;99.90;;;;;;5059784;28;20049;-57
2023/10/27 09:49:38;;;;;;;34.90;21.25;;;10.10;99.90;;;;;;5058215;28;20077;-58
2023/10/27 09:52:09;;;;;;;36.45;20.85;;;10.10;99.90;;;;;;5060253;28;20045;-58
2023/10/27 09:54:36;;;;;;;39.30;20.98;;;10.10;99.90;;;;;;5069291;28;20036;-57
2023/10/27 09:57:02;;;;;;;37.88;21.70;;;10.10;99.90;;;;;;5071545;28;20052;-59
2023/10/27 09:59:30;;;;;;;37.28;22.17;;;10.20;99.90;;;;;;5073877;28;20121;-58
2023/10/27 10:01:56;;;;;;;39.08;20.23;;;10.10;99.90;;;;;;5069453;28;20499;-57
2023/10/27 10:04:50;;;;;;;35.65;20.83;;;10.10;99.90;;;;;;5068896;28;20108;-57
2023/10/27 10:07:34;;;;;;;40.85;19.65;;;10.10;99.90;;;;;;5069042;28;20051;-57
2023/10/27 10:10:33;;;;;;;43.53;22.50;;;10.20;99.90;;;;;;5068881;28;20047;-57
2023/10/27 10:13:17;;;;;;;40.33;22.08;;;10.20;99.90;;;;;;5049855;28;20047;-56
2023/10/27 10:15:45;;;;;;;41.65;23.35;;;10.20;99.90;;;;;;5060039;28;20037;-57
2023/10/27 10:18:19;;;;;;;42.00;21.42;;;10.20;99.90;;;;;;5048186;28;20055;-57
2023/10/27 10:20:45;;;;;;;39.22;21.58;;;10.20;99.90;;;;;;5066388;28;20040;-55
2023/10/27 10:23:15;;;;;;;39.83;21.90;;;10.20;99.90;;;;;;5066397;28;20048;-56
2023/10/27 10:25:57;;;;;;;39.72;22.50;;;10.20;99.90;;;;;;5069183;28;20024;-56
2023/10/27 10:28:23;;;;;;;34.88;20.75;;;10.30;99.90;;;;;;5069220;28;20043;-56
2023/10/27 10:31:10;;;;;;;40.72;22.55;;;10.30;99.90;;;;;;5068846;28;20040;-56
2023/10/27 10:33:37;;;;;;;40.45;23.45;;;10.30;99.90;;;;;;5050019;28;20040;-56
2023/10/27 10:36:15;;;;;;;39.70;24.10;;;10.30;99.90;;;;;;5066813;28;20051;-57
2023/10/27 10:38:53;;;;;;;41.92;24.10;;;10.30;99.90;;;;;;5050935;28;20047;-55
2023/10/27 10:41:19;;;;;;;43.97;24.92;;;10.30;99.90;;;;;;5068578;28;20066;-55
2023/10/27 10:44:06;;;;;;;42.30;24.48;;;10.30;99.90;;;;;;5065997;28;20539;-57
2023/10/27 10:46:31;;;;;;;44.45;24.55;;;10.40;99.90;;;;;;5060179;28;20056;-58
2023/10/27 10:48:57;;;;;;;41.17;22.85;;;10.40;99.90;;;;;;5068375;28;20368;-58
2023/10/27 10:51:30;;;;;;;38.35;20.92;;;10.40;99.90;;;;;;5066133;28;20032;-57
2023/10/27 10:53:56;;;;;;;39.13;23.23;;;10.40;99.90;;;;;;5068385;28;20408;-57
2023/10/27 10:56:24;;;;;;;38.33;23.55;;;10.40;99.90;;;;;;5051036;28;20195;-57
2023/10/27 10:58:50;;;;;;;36.03;23.15;;;10.40;99.90;;;;;;5072015;28;20047;-58
2023/10/27 11:01:17;;;;;;;37.63;23.10;;;10.40;99.90;;;;;;5071163;28;20040;-56
2023/10/27 11:03:54;;;;;;;38.15;22.58;;;10.40;99.90;;;;;;5052753;28;20037;-57
2023/10/27 11:06:24;;;;;;;39.80;23.30;;;10.50;99.90;;;;;;5071656;28;20047;-58
2023/10/27 11:08:50;;;;;;;39.33;23.77;;;10.40;99.90;;;;;;5071816;28;20376;-57
2023/10/27 11:11:19;;;;;;;36.65;22.48;;;10.50;99.90;;;;;;5071941;28;20098;-57
2023/10/27 11:13:52;;;;;;;40.83;24.48;;;10.50;99.90;;;;;;5070238;28;20040;-58
2023/10/27 11:16:22;;;;;;;35.83;22.77;;;10.50;99.90;;;;;;5065751;28;20123;-58
2023/10/27 11:18:51;;;;;;;39.47;23.42;;;10.50;99.90;;;;;;5069167;28;20045;-57
2023/10/27 11:21:22;;;;;;;35.75;23.45;;;10.50;99.90;;;;;;5065439;28;20115;-58
2023/10/27 11:23:48;;;;;;;42.08;24.98;;;10.50;99.90;;;;;;5071534;28;20511;-56
2023/10/27 11:26:16;;;;;;;37.53;23.13;;;10.50;99.90;;;;;;5071373;28;20037;-58
2023/10/27 11:28:43;;;;;;;38.60;23.48;;;10.50;99.90;;;;;;5071623;28;20626;-57
2023/10/27 11:31:23;;;;;;;34.40;22.98;;;10.50;99.90;;;;;;5071384;28;20503;-57
2023/10/27 11:34:09;;;;;;;36.90;23.75;;;10.50;99.90;;;;;;5065539;28;20530;-58
2023/10/27 11:36:38;;;;;;;38.88;23.08;;;10.50;99.90;;;;;;5071061;28;20410;-58
2023/10/27 11:39:23;;;;;;;39.33;23.27;;;10.50;99.90;;;;;;5071349;28;20040;-58
2023/10/27 11:42:03;;;;;;;34.58;22.55;;;10.50;99.90;;;;;;5068830;28;20033;-58
2023/10/27 11:44:36;;;;;;;35.45;22.10;;;10.50;99.90;;;;;;5068517;28;20049;-58
2023/10/27 11:47:02;;;;;;;32.88;20.35;;;10.50;99.90;;;;;;5039877;28;20064;-58
2023/10/27 11:49:28;;;;;;;37.28;23.20;;;10.40;99.90;;;;;;5046769;28;20037;-58
2023/10/27 11:51:56;;;;;;;43.70;25.33;;;10.40;99.90;;;;;;5042973;28;20422;-58
2023/10/27 11:54:26;;;;;;;32.58;20.90;;;10.40;99.90;;;;;;5065525;28;20056;-56
2023/10/27 11:56:52;;;;;;;36.05;22.20;;;10.40;99.90;;;;;;5056365;28;20048;-58
2023/10/27 11:59:19;;;;;;;39.33;24.63;;;10.40;99.90;;;;;;5050864;28;20098;-57
2023/10/27 12:01:45;;;;;;;53.08;25.45;;;10.40;99.90;;;;;;5053019;28;20052;-57
2023/10/27 12:04:12;;;;;;;39.73;24.80;;;10.40;99.90;;;;;;5046691;28;20036;-57
2023/10/27 12:06:38;;;;;;;35.38;23.30;;;10.40;99.90;;;;;;5045720;28;20305;-58
2023/10/27 12:09:04;;;;;;;36.83;23.48;;;10.40;99.90;;;;;;5051645;28;20040;-57
2023/10/27 12:11:30;;;;;;;35.15;22.92;;;10.40;99.90;;;;;;5055632;28;20045;-57
2023/10/27 12:13:56;;;;;;;40.83;23.17;;;10.40;99.90;;;;;;5040581;28;20635;-58
2023/10/27 12:16:22;;;;;;;38.70;23.50;;;10.40;99.90;;;;;;5067350;28;20438;-57
2023/10/27 12:18:48;;;;;;;;;;;10.40;99.90;;;;;;5066156;28;20037;-58
2023/10/27 12:21:14;;;;;;;34.92;21.17;;;10.40;99.90;;;;;;5064142;28;19916;-58
2023/10/27 12:23:40;;;;;;;34.00;21.38;;;10.50;99.90;;;;;;5035809;28;20501;-58
2023/10/27 12:26:07;;;;;;;32.67;20.02;;;10.50;99.90;;;;;;5069276;28;20048;-58
2023/10/27 12:28:33;;;;;;;32.83;21.95;;;10.50;99.90;;;;;;5059407;28;20033;-58
2023/10/27 12:30:59;;;;;;;34.83;22.45;;;10.50;99.90;;;;;;5068847;28;20043;-57
2023/10/27 12:33:25;;;;;;;35.33;22.30;;;10.50;99.90;;;;;;5051617;28;20045;-58